sensor_id;sensor_type;location;lat;lon;timestamp;temperature;humidity
23991;DHT22;12205;50.600;4.608;2023-08-01T00:00:11;16.80;99.90
23991;DHT22;12205;50.600;4.608;2023-08-01T00:02:39;16.80;99.90
23991;DHT22;12205;50.600;4.608;2023-08-01T00:05:08;16.90;99.90
23991;DHT22;12205;50.600;4.608;2023-08-01T00:07:37;16.90;99.90
23991;DHT22;12205;50.600;4.608;2023-08-01T00:10:05;16.90;99.90
23991;DHT22;12205;50.600;4.608;2023-08-01T00:12:33;16.80;99.90
23991;DHT22;12205;50.600;4.608;2023-08-01T00:15:01;16.80;99.90
23991;DHT22;12205;50.600;4.608;2023-08-01T00:17:28;16.90;99.90
23991;DHT22;12205;50.600;4.608;2023-08-01T00:19:55;16.90;99.90
23991;DHT22;12205;50.600;4.608;2023-08-01T00:22:22;16.80;99.90
23991;DHT22;12205;50.600;4.608;2023-08-01T00:24:51;16.80;99.90
23991;DHT22;12205;50.600;4.608;2023-08-01T00:27:18;16.80;99.90
23991;DHT22;12205;50.600;4.608;2023-08-01T00:29:46;16.80;99.90
23991;DHT22;12205;50.600;4.608;2023-08-01T00:32:13;16.80;99.90
23991;DHT22;12205;50.600;4.608;2023-08-01T00:34:40;16.80;99.90
23991;DHT22;12205;50.600;4.608;2023-08-01T00:37:07;16.80;99.90
23991;DHT22;12205;50.600;4.608;2023-08-01T00:39:34;16.80;99.90
23991;DHT22;12205;50.600;4.608;2023-08-01T00:42:03;16.80;99.90
23991;DHT22;12205;50.600;4.608;2023-08-01T00:44:30;16.80;99.90
23991;DHT22;12205;50.600;4.608;2023-08-01T00:46:57;16.80;99.90
23991;DHT22;12205;50.600;4.608;2023-08-01T00:49:24;16.80;99.90
23991;DHT22;12205;50.600;4.608;2023-08-01T00:51:52;16.70;99.90
23991;DHT22;12205;50.600;4.608;2023-08-01T00:54:19;16.70;99.90
23991;DHT22;12205;50.600;4.608;2023-08-01T00:56:46;16.60;99.90
23991;DHT22;12205;50.600;4.608;2023-08-01T00:59:15;16.50;99.90
23991;DHT22;12205;50.600;4.608;2023-08-01T01:01:42;16.50;99.90
23991;DHT22;12205;50.600;4.608;2023-08-01T01:04:09;16.50;99.90
23991;DHT22;12205;50.600;4.608;2023-08-01T01:06:41;16.50;99.90
23991;DHT22;12205;50.600;4.608;2023-08-01T01:09:15;16.50;99.90
23991;DHT22;12205;50.600;4.608;2023-08-01T01:11:43;16.50;99.90
23991;DHT22;12205;50.600;4.608;2023-08-01T01:14:10;16.50;99.90
23991;DHT22;12205;50.600;4.608;2023-08-01T01:16:39;16.50;99.90
23991;DHT22;12205;50.600;4.608;2023-08-01T01:19:07;16.50;99.90
23991;DHT22;12205;50.600;4.608;2023-08-01T01:21:38;16.40;99.90
23991;DHT22;12205;50.600;4.608;2023-08-01T01:24:08;16.40;99.90
23991;DHT22;12205;50.600;4.608;2023-08-01T01:26:37;16.40;99.90
23991;DHT22;12205;50.600;4.608;2023-08-01T01:29:07;16.50;99.90
23991;DHT22;12205;50.600;4.608;2023-08-01T01:31:36;16.30;99.90
23991;DHT22;12205;50.600;4.608;2023-08-01T01:34:04;16.30;99.90
23991;DHT22;12205;50.600;4.608;2023-08-01T01:36:31;16.40;99.90
23991;DHT22;12205;50.600;4.608;2023-08-01T01:38:59;16.40;99.90
23991;DHT22;12205;50.600;4.608;2023-08-01T01:41:28;16.40;99.90
23991;DHT22;12205;50.600;4.608;2023-08-01T01:43:55;16.40;99.90
23991;DHT22;12205;50.600;4.608;2023-08-01T01:46:22;16.30;99.90
23991;DHT22;12205;50.600;4.608;2023-08-01T01:48:49;16.40;99.90
23991;DHT22;12205;50.600;4.608;2023-08-01T01:51:16;16.50;99.90
23991;DHT22;12205;50.600;4.608;2023-08-01T01:53:43;16.40;99.90
23991;DHT22;12205;50.600;4.608;2023-08-01T01:56:12;16.40;99.90
23991;DHT22;12205;50.600;4.608;2023-08-01T01:58:39;16.50;99.90
23991;DHT22;12205;50.600;4.608;2023-08-01T02:01:06;16.50;99.90
23991;DHT22;12205;50.600;4.608;2023-08-01T02:03:33;16.50;99.90
23991;DHT22;12205;50.600;4.608;2023-08-01T02:06:01;16.50;99.90
23991;DHT22;12205;50.600;4.608;2023-08-01T02:08:29;16.50;99.90
23991;DHT22;12205;50.600;4.608;2023-08-01T02:10:56;16.40;99.90
23991;DHT22;12205;50.600;4.608;2023-08-01T02:13:26;16.50;99.90
23991;DHT22;12205;50.600;4.608;2023-08-01T02:15:54;16.50;99.90
23991;DHT22;12205;50.600;4.608;2023-08-01T02:18:22;16.50;99.90
23991;DHT22;12205;50.600;4.608;2023-08-01T02:20:49;16.60;99.90
23991;DHT22;12205;50.600;4.608;2023-08-01T02:23:17;16.50;99.90
23991;DHT22;12205;50.600;4.608;2023-08-01T02:25:44;16.50;99.90
23991;DHT22;12205;50.600;4.608;2023-08-01T02:28:11;16.40;99.90
23991;DHT22;12205;50.600;4.608;2023-08-01T02:30:39;16.40;99.90
23991;DHT22;12205;50.600;4.608;2023-08-01T02:33:06;16.40;99.90
23991;DHT22;12205;50.600;4.608;2023-08-01T02:35:33;16.30;99.90
23991;DHT22;12205;50.600;4.608;2023-08-01T02:38:00;16.30;99.90
23991;DHT22;12205;50.600;4.608;2023-08-01T02:40:29;16.30;99.90
23991;DHT22;12205;50.600;4.608;2023-08-01T02:42:56;16.30;99.90
23991;DHT22;12205;50.600;4.608;2023-08-01T02:45:23;16.20;99.90
23991;DHT22;12205;50.600;4.608;2023-08-01T02:47:52;16.20;99.90
23991;DHT22;12205;50.600;4.608;2023-08-01T02:50:19;16.20;99.90
23991;DHT22;12205;50.600;4.608;2023-08-01T02:52:46;16.10;99.90
23991;DHT22;12205;50.600;4.608;2023-08-01T02:55:13;16.10;99.90
23991;DHT22;12205;50.600;4.608;2023-08-01T02:57:40;16.10;99.90
23991;DHT22;12205;50.600;4.608;2023-08-01T03:00:08;16.10;99.90
23991;DHT22;12205;50.600;4.608;2023-08-01T03:02:37;16.10;99.90
23991;DHT22;12205;50.600;4.608;2023-08-01T03:05:08;16.20;99.90
23991;DHT22;12205;50.600;4.608;2023-08-01T03:07:36;16.20;99.90
23991;DHT22;12205;50.600;4.608;2023-08-01T03:10:03;16.20;99.90
23991;DHT22;12205;50.600;4.608;2023-08-01T03:12:32;16.20;99.90
23991;DHT22;12205;50.600;4.608;2023-08-01T03:14:59;16.20;99.90
23991;DHT22;12205;50.600;4.608;2023-08-01T03:17:26;16.20;99.90
23991;DHT22;12205;50.600;4.608;2023-08-01T03:19:53;16.30;99.90
23991;DHT22;12205;50.600;4.608;2023-08-01T03:22:22;16.20;99.90
23991;DHT22;12205;50.600;4.608;2023-08-01T03:24:49;16.20;99.90
23991;DHT22;12205;50.600;4.608;2023-08-01T03:27:16;16.10;99.90
23991;DHT22;12205;50.600;4.608;2023-08-01T03:29:43;16.10;99.90
23991;DHT22;12205;50.600;4.608;2023-08-01T03:32:10;16.10;99.90
23991;DHT22;12205;50.600;4.608;2023-08-01T03:34:37;16.10;99.90
23991;DHT22;12205;50.600;4.608;2023-08-01T03:37:06;16.20;99.90
23991;DHT22;12205;50.600;4.608;2023-08-01T03:39:35;16.20;99.90
23991;DHT22;12205;50.600;4.608;2023-08-01T03:42:03;16.10;99.90
23991;DHT22;12205;50.600;4.608;2023-08-01T03:44:30;16.20;99.90
23991;DHT22;12205;50.600;4.608;2023-08-01T03:46:59;16.20;99.90
23991;DHT22;12205;50.600;4.608;2023-08-01T03:49:26;16.20;99.90
23991;DHT22;12205;50.600;4.608;2023-08-01T03:51:53;16.10;99.90
23991;DHT22;12205;50.600;4.608;2023-08-01T03:54:20;16.10;99.90
23991;DHT22;12205;50.600;4.608;2023-08-01T03:56:49;16.10;99.90
23991;DHT22;12205;50.600;4.608;2023-08-01T03:59:16;16.10;99.90
23991;DHT22;12205;50.600;4.608;2023-08-01T04:01:43;16.10;99.90
23991;DHT22;12205;50.600;4.608;2023-08-01T04:04:10;16.10;99.90
23991;DHT22;12205;50.600;4.608;2023-08-01T04:06:37;16.10;99.90
23991;DHT22;12205;50.600;4.608;2023-08-01T04:09:05;16.20;99.90
23991;DHT22;12205;50.600;4.608;2023-08-01T04:11:32;16.10;99.90
23991;DHT22;12205;50.600;4.608;2023-08-01T04:14:01;16.00;99.90
23991;DHT22;12205;50.600;4.608;2023-08-01T04:16:28;16.10;99.90
23991;DHT22;12205;50.600;4.608;2023-08-01T04:18:55;16.10;99.90
23991;DHT22;12205;50.600;4.608;2023-08-01T04:21:22;16.00;99.90
23991;DHT22;12205;50.600;4.608;2023-08-01T04:23:49;16.00;99.90
23991;DHT22;12205;50.600;4.608;2023-08-01T04:26:16;15.90;99.90
23991;DHT22;12205;50.600;4.608;2023-08-01T04:28:45;16.00;99.90
23991;DHT22;12205;50.600;4.608;2023-08-01T04:31:13;16.10;99.90
23991;DHT22;12205;50.600;4.608;2023-08-01T04:33:41;16.10;99.90
23991;DHT22;12205;50.600;4.608;2023-08-01T04:36:08;16.00;99.90
23991;DHT22;12205;50.600;4.608;2023-08-01T04:38:35;16.00;99.90
23991;DHT22;12205;50.600;4.608;2023-08-01T04:41:02;16.00;99.90
23991;DHT22;12205;50.600;4.608;2023-08-01T04:43:29;16.00;99.90
23991;DHT22;12205;50.600;4.608;2023-08-01T04:45:56;16.10;99.90
23991;DHT22;12205;50.600;4.608;2023-08-01T04:48:24;16.10;99.90
23991;DHT22;12205;50.600;4.608;2023-08-01T04:50:51;16.10;99.90
23991;DHT22;12205;50.600;4.608;2023-08-01T04:53:18;16.00;99.90
23991;DHT22;12205;50.600;4.608;2023-08-01T04:55:45;16.00;99.90
23991;DHT22;12205;50.600;4.608;2023-08-01T04:58:12;16.00;99.90
23991;DHT22;12205;50.600;4.608;2023-08-01T05:00:42;16.00;99.90
23991;DHT22;12205;50.600;4.608;2023-08-01T05:03:09;15.90;99.90
23991;DHT22;12205;50.600;4.608;2023-08-01T05:05:37;15.80;99.90
23991;DHT22;12205;50.600;4.608;2023-08-01T05:08:04;16.00;99.90
23991;DHT22;12205;50.600;4.608;2023-08-01T05:10:31;16.00;99.90
23991;DHT22;12205;50.600;4.608;2023-08-01T05:12:59;15.90;99.90
23991;DHT22;12205;50.600;4.608;2023-08-01T05:15:26;16.00;99.90
23991;DHT22;12205;50.600;4.608;2023-08-01T05:17:53;16.10;99.90
23991;DHT22;12205;50.600;4.608;2023-08-01T05:20:21;16.00;99.90
23991;DHT22;12205;50.600;4.608;2023-08-01T05:22:49;16.00;99.90
23991;DHT22;12205;50.600;4.608;2023-08-01T05:25:16;16.10;99.90
23991;DHT22;12205;50.600;4.608;2023-08-01T05:27:43;16.10;99.90
23991;DHT22;12205;50.600;4.608;2023-08-01T05:30:11;16.00;99.90
23991;DHT22;12205;50.600;4.608;2023-08-01T05:32:38;16.10;99.90
23991;DHT22;12205;50.600;4.608;2023-08-01T05:35:07;16.10;99.90
23991;DHT22;12205;50.600;4.608;2023-08-01T05:37:34;16.10;99.90
23991;DHT22;12205;50.600;4.608;2023-08-01T05:40:04;16.20;99.90
23991;DHT22;12205;50.600;4.608;2023-08-01T05:42:32;16.20;99.90
23991;DHT22;12205;50.600;4.608;2023-08-01T05:44:59;16.20;99.90
23991;DHT22;12205;50.600;4.608;2023-08-01T05:47:26;16.30;99.90
23991;DHT22;12205;50.600;4.608;2023-08-01T05:49:53;16.30;99.90
23991;DHT22;12205;50.600;4.608;2023-08-01T05:52:20;16.40;99.90
23991;DHT22;12205;50.600;4.608;2023-08-01T05:54:47;16.30;99.90
23991;DHT22;12205;50.600;4.608;2023-08-01T05:57:16;16.30;99.90
23991;DHT22;12205;50.600;4.608;2023-08-01T05:59:43;16.40;99.90
23991;DHT22;12205;50.600;4.608;2023-08-01T06:02:10;16.40;99.90
23991;DHT22;12205;50.600;4.608;2023-08-01T06:04:37;16.50;99.90
23991;DHT22;12205;50.600;4.608;2023-08-01T06:07:05;16.60;99.90
23991;DHT22;12205;50.600;4.608;2023-08-01T06:09:32;16.50;99.90
23991;DHT22;12205;50.600;4.608;2023-08-01T06:11:59;16.50;99.90
23991;DHT22;12205;50.600;4.608;2023-08-01T06:14:28;16.40;99.90
23991;DHT22;12205;50.600;4.608;2023-08-01T06:16:55;16.60;99.90
23991;DHT22;12205;50.600;4.608;2023-08-01T06:19:22;16.60;99.90
23991;DHT22;12205;50.600;4.608;2023-08-01T06:21:49;16.70;99.90
23991;DHT22;12205;50.600;4.608;2023-08-01T06:24:16;16.70;99.90
23991;DHT22;12205;50.600;4.608;2023-08-01T06:26:43;16.80;99.90
23991;DHT22;12205;50.600;4.608;2023-08-01T06:29:10;16.80;99.90
23991;DHT22;12205;50.600;4.608;2023-08-01T06:31:39;16.80;99.90
23991;DHT22;12205;50.600;4.608;2023-08-01T06:34:06;16.90;99.90
23991;DHT22;12205;50.600;4.608;2023-08-01T06:36:33;16.90;99.90
23991;DHT22;12205;50.600;4.608;2023-08-01T06:39:00;17.00;99.90
23991;DHT22;12205;50.600;4.608;2023-08-01T06:41:28;17.00;99.90
23991;DHT22;12205;50.600;4.608;2023-08-01T06:43:55;17.00;99.90
23991;DHT22;12205;50.600;4.608;2023-08-01T06:46:23;17.00;99.90
23991;DHT22;12205;50.600;4.608;2023-08-01T06:48:54;17.00;99.90
23991;DHT22;12205;50.600;4.608;2023-08-01T06:51:24;17.10;99.90
23991;DHT22;12205;50.600;4.608;2023-08-01T06:53:51;17.10;99.90
23991;DHT22;12205;50.600;4.608;2023-08-01T06:56:18;17.10;99.90
23991;DHT22;12205;50.600;4.608;2023-08-01T06:58:46;17.10;99.90
23991;DHT22;12205;50.600;4.608;2023-08-01T07:01:13;17.20;99.90
23991;DHT22;12205;50.600;4.608;2023-08-01T07:03:41;17.30;99.90
23991;DHT22;12205;50.600;4.608;2023-08-01T07:06:09;17.40;99.90
23991;DHT22;12205;50.600;4.608;2023-08-01T07:08:36;17.50;99.90
23991;DHT22;12205;50.600;4.608;2023-08-01T07:11:03;17.50;99.90
23991;DHT22;12205;50.600;4.608;2023-08-01T07:13:30;17.40;99.90
23991;DHT22;12205;50.600;4.608;2023-08-01T07:15:58;17.50;99.90
23991;DHT22;12205;50.600;4.608;2023-08-01T07:18:25;17.60;99.90
23991;DHT22;12205;50.600;4.608;2023-08-01T07:20:59;17.70;99.90
23991;DHT22;12205;50.600;4.608;2023-08-01T07:23:28;17.80;99.90
23991;DHT22;12205;50.600;4.608;2023-08-01T07:25:55;17.80;99.90
23991;DHT22;12205;50.600;4.608;2023-08-01T07:28:22;17.90;99.90
23991;DHT22;12205;50.600;4.608;2023-08-01T07:30:58;17.90;99.90
23991;DHT22;12205;50.600;4.608;2023-08-01T07:33:26;17.90;99.90
23991;DHT22;12205;50.600;4.608;2023-08-01T07:35:53;17.90;99.90
23991;DHT22;12205;50.600;4.608;2023-08-01T07:38:20;18.00;99.90
23991;DHT22;12205;50.600;4.608;2023-08-01T07:40:49;18.00;99.90
23991;DHT22;12205;50.600;4.608;2023-08-01T07:43:16;18.00;99.90
23991;DHT22;12205;50.600;4.608;2023-08-01T07:45:44;18.00;99.90
23991;DHT22;12205;50.600;4.608;2023-08-01T07:48:11;18.00;99.90
23991;DHT22;12205;50.600;4.608;2023-08-01T07:50:38;17.90;99.90
23991;DHT22;12205;50.600;4.608;2023-08-01T07:53:05;17.90;99.90
23991;DHT22;12205;50.600;4.608;2023-08-01T07:55:33;18.00;99.90
23991;DHT22;12205;50.600;4.608;2023-08-01T07:58:02;18.00;99.90
23991;DHT22;12205;50.600;4.608;2023-08-01T08:00:29;17.90;99.90
23991;DHT22;12205;50.600;4.608;2023-08-01T08:02:57;18.00;99.90
23991;DHT22;12205;50.600;4.608;2023-08-01T08:05:24;18.10;99.90
23991;DHT22;12205;50.600;4.608;2023-08-01T08:07:51;18.20;99.90
23991;DHT22;12205;50.600;4.608;2023-08-01T08:10:19;18.10;99.90
23991;DHT22;12205;50.600;4.608;2023-08-01T08:12:46;18.10;99.90
23991;DHT22;12205;50.600;4.608;2023-08-01T08:15:14;18.00;99.90
23991;DHT22;12205;50.600;4.608;2023-08-01T08:17:41;18.00;99.90
23991;DHT22;12205;50.600;4.608;2023-08-01T08:20:09;18.00;99.90
23991;DHT22;12205;50.600;4.608;2023-08-01T08:22:36;18.10;99.90
23991;DHT22;12205;50.600;4.608;2023-08-01T08:25:03;18.30;99.90
23991;DHT22;12205;50.600;4.608;2023-08-01T08:27:31;18.40;99.90
23991;DHT22;12205;50.600;4.608;2023-08-01T08:29:58;18.40;99.90
23991;DHT22;12205;50.600;4.608;2023-08-01T08:32:26;18.60;99.90
23991;DHT22;12205;50.600;4.608;2023-08-01T08:34:53;18.70;99.90
23991;DHT22;12205;50.600;4.608;2023-08-01T08:37:20;18.80;99.90
23991;DHT22;12205;50.600;4.608;2023-08-01T08:39:48;18.90;99.90
23991;DHT22;12205;50.600;4.608;2023-08-01T08:42:17;18.90;99.90
23991;DHT22;12205;50.600;4.608;2023-08-01T08:44:50;18.80;99.90
23991;DHT22;12205;50.600;4.608;2023-08-01T08:47:26;18.80;99.90
23991;DHT22;12205;50.600;4.608;2023-08-01T08:49:55;18.90;99.90
23991;DHT22;12205;50.600;4.608;2023-08-01T08:52:23;18.90;99.90
23991;DHT22;12205;50.600;4.608;2023-08-01T08:54:52;19.00;99.90
23991;DHT22;12205;50.600;4.608;2023-08-01T08:57:19;19.00;99.90
23991;DHT22;12205;50.600;4.608;2023-08-01T08:59:47;19.10;99.90
23991;DHT22;12205;50.600;4.608;2023-08-01T09:02:15;19.10;99.90
23991;DHT22;12205;50.600;4.608;2023-08-01T09:04:44;19.00;99.90
23991;DHT22;12205;50.600;4.608;2023-08-01T09:07:13;18.90;99.90
23991;DHT22;12205;50.600;4.608;2023-08-01T09:09:43;18.70;99.90
23991;DHT22;12205;50.600;4.608;2023-08-01T09:12:11;18.30;99.90
23991;DHT22;12205;50.600;4.608;2023-08-01T09:14:39;17.90;99.90
23991;DHT22;12205;50.600;4.608;2023-08-01T09:17:07;17.80;99.90
23991;DHT22;12205;50.600;4.608;2023-08-01T09:19:35;17.60;99.90
23991;DHT22;12205;50.600;4.608;2023-08-01T09:22:10;17.70;99.90
23991;DHT22;12205;50.600;4.608;2023-08-01T09:24:38;17.80;99.90
23991;DHT22;12205;50.600;4.608;2023-08-01T09:27:06;18.00;99.90
23991;DHT22;12205;50.600;4.608;2023-08-01T09:29:34;18.20;99.90
23991;DHT22;12205;50.600;4.608;2023-08-01T09:32:11;18.30;99.90
23991;DHT22;12205;50.600;4.608;2023-08-01T09:34:40;18.40;99.90
23991;DHT22;12205;50.600;4.608;2023-08-01T09:37:09;18.40;99.90
23991;DHT22;12205;50.600;4.608;2023-08-01T09:39:36;18.50;99.90
23991;DHT22;12205;50.600;4.608;2023-08-01T09:42:04;18.60;99.90
23991;DHT22;12205;50.600;4.608;2023-08-01T09:44:31;18.70;99.90
23991;DHT22;12205;50.600;4.608;2023-08-01T09:47:03;18.90;99.90
23991;DHT22;12205;50.600;4.608;2023-08-01T09:49:31;19.10;99.90
23991;DHT22;12205;50.600;4.608;2023-08-01T09:51:59;19.20;99.90
23991;DHT22;12205;50.600;4.608;2023-08-01T09:54:28;19.00;99.90
23991;DHT22;12205;50.600;4.608;2023-08-01T09:56:55;19.00;99.90
23991;DHT22;12205;50.600;4.608;2023-08-01T09:59:23;18.90;99.90
23991;DHT22;12205;50.600;4.608;2023-08-01T10:01:53;18.70;99.90
23991;DHT22;12205;50.600;4.608;2023-08-01T10:04:23;18.70;99.90
23991;DHT22;12205;50.600;4.608;2023-08-01T10:06:57;18.80;99.90
23991;DHT22;12205;50.600;4.608;2023-08-01T10:09:27;18.50;99.90
23991;DHT22;12205;50.600;4.608;2023-08-01T10:11:57;18.60;99.90
23991;DHT22;12205;50.600;4.608;2023-08-01T10:14:25;18.50;99.90
23991;DHT22;12205;50.600;4.608;2023-08-01T10:16:53;18.50;99.90
23991;DHT22;12205;50.600;4.608;2023-08-01T10:19:22;18.60;99.90
23991;DHT22;12205;50.600;4.608;2023-08-01T10:21:50;18.70;99.90
23991;DHT22;12205;50.600;4.608;2023-08-01T10:24:19;18.70;99.90
23991;DHT22;12205;50.600;4.608;2023-08-01T10:26:48;18.70;99.90
23991;DHT22;12205;50.600;4.608;2023-08-01T10:29:15;18.80;99.90
23991;DHT22;12205;50.600;4.608;2023-08-01T10:31:51;18.70;99.90
23991;DHT22;12205;50.600;4.608;2023-08-01T10:34:19;18.60;99.90
23991;DHT22;12205;50.600;4.608;2023-08-01T10:36:54;18.50;99.90
23991;DHT22;12205;50.600;4.608;2023-08-01T10:39:22;18.70;99.90
23991;DHT22;12205;50.600;4.608;2023-08-01T10:41:58;18.80;99.90
23991;DHT22;12205;50.600;4.608;2023-08-01T10:44:27;18.90;99.90
23991;DHT22;12205;50.600;4.608;2023-08-01T10:46:58;18.90;99.90
23991;DHT22;12205;50.600;4.608;2023-08-01T10:49:36;19.00;99.90
23991;DHT22;12205;50.600;4.608;2023-08-01T10:52:16;19.20;99.90
23991;DHT22;12205;50.600;4.608;2023-08-01T10:54:44;19.40;99.90
23991;DHT22;12205;50.600;4.608;2023-08-01T10:57:17;19.40;99.90
23991;DHT22;12205;50.600;4.608;2023-08-01T10:59:44;19.50;99.90
23991;DHT22;12205;50.600;4.608;2023-08-01T11:02:12;19.40;99.90
23991;DHT22;12205;50.600;4.608;2023-08-01T11:04:55;19.60;99.90
23991;DHT22;12205;50.600;4.608;2023-08-01T11:07:23;19.80;99.90
23991;DHT22;12205;50.600;4.608;2023-08-01T11:10:04;20.00;99.90
23991;DHT22;12205;50.600;4.608;2023-08-01T11:12:36;20.30;99.90
23991;DHT22;12205;50.600;4.608;2023-08-01T11:15:05;20.40;99.90
23991;DHT22;12205;50.600;4.608;2023-08-01T11:17:35;20.40;99.90
23991;DHT22;12205;50.600;4.608;2023-08-01T11:20:04;20.30;99.90
23991;DHT22;12205;50.600;4.608;2023-08-01T11:22:33;20.20;99.90
23991;DHT22;12205;50.600;4.608;2023-08-01T11:25:01;20.10;99.90
23991;DHT22;12205;50.600;4.608;2023-08-01T11:27:28;20.20;99.90
23991;DHT22;12205;50.600;4.608;2023-08-01T11:29:56;20.00;99.90
23991;DHT22;12205;50.600;4.608;2023-08-01T11:32:33;19.80;99.90
23991;DHT22;12205;50.600;4.608;2023-08-01T11:35:01;19.60;99.90
23991;DHT22;12205;50.600;4.608;2023-08-01T11:37:29;19.40;99.90
23991;DHT22;12205;50.600;4.608;2023-08-01T11:39:59;19.40;99.90
23991;DHT22;12205;50.600;4.608;2023-08-01T11:42:30;19.30;99.90
23991;DHT22;12205;50.600;4.608;2023-08-01T11:45:09;19.40;99.90
23991;DHT22;12205;50.600;4.608;2023-08-01T11:47:38;19.60;99.90
23991;DHT22;12205;50.600;4.608;2023-08-01T11:50:12;19.80;99.90
23991;DHT22;12205;50.600;4.608;2023-08-01T11:52:39;20.00;99.90
23991;DHT22;12205;50.600;4.608;2023-08-01T11:55:07;20.30;99.90
23991;DHT22;12205;50.600;4.608;2023-08-01T11:57:35;20.40;99.90
23991;DHT22;12205;50.600;4.608;2023-08-01T12:00:02;20.50;99.90
23991;DHT22;12205;50.600;4.608;2023-08-01T12:02:39;20.60;99.90
23991;DHT22;12205;50.600;4.608;2023-08-01T12:05:08;20.60;99.90
23991;DHT22;12205;50.600;4.608;2023-08-01T12:07:36;20.90;99.90
23991;DHT22;12205;50.600;4.608;2023-08-01T12:10:03;21.00;99.90
23991;DHT22;12205;50.600;4.608;2023-08-01T12:12:31;21.30;99.90
23991;DHT22;12205;50.600;4.608;2023-08-01T12:14:58;21.50;99.90
23991;DHT22;12205;50.600;4.608;2023-08-01T12:17:26;22.00;99.90
23991;DHT22;12205;50.600;4.608;2023-08-01T12:19:54;22.50;99.90
23991;DHT22;12205;50.600;4.608;2023-08-01T12:22:21;22.60;99.90
23991;DHT22;12205;50.600;4.608;2023-08-01T12:24:49;22.90;99.90
23991;DHT22;12205;50.600;4.608;2023-08-01T12:27:16;22.90;99.90
23991;DHT22;12205;50.600;4.608;2023-08-01T12:29:43;22.80;99.90
23991;DHT22;12205;50.600;4.608;2023-08-01T12:32:10;22.60;99.90
23991;DHT22;12205;50.600;4.608;2023-08-01T12:34:37;22.30;99.90
23991;DHT22;12205;50.600;4.608;2023-08-01T12:37:06;22.10;99.90
23991;DHT22;12205;50.600;4.608;2023-08-01T12:39:33;22.00;99.90
23991;DHT22;12205;50.600;4.608;2023-08-01T12:42:00;21.90;99.90
23991;DHT22;12205;50.600;4.608;2023-08-01T12:44:28;21.80;99.90
23991;DHT22;12205;50.600;4.608;2023-08-01T12:46:55;21.90;99.90
23991;DHT22;12205;50.600;4.608;2023-08-01T12:49:22;22.20;99.90
23991;DHT22;12205;50.600;4.608;2023-08-01T12:51:49;22.50;99.90
23991;DHT22;12205;50.600;4.608;2023-08-01T12:54:18;22.60;99.90
23991;DHT22;12205;50.600;4.608;2023-08-01T12:56:45;23.20;99.90
23991;DHT22;12205;50.600;4.608;2023-08-01T12:59:12;23.60;99.90
23991;DHT22;12205;50.600;4.608;2023-08-01T13:01:39;23.70;99.90
23991;DHT22;12205;50.600;4.608;2023-08-01T13:04:06;23.90;99.90
23991;DHT22;12205;50.600;4.608;2023-08-01T13:06:33;24.10;99.90
23991;DHT22;12205;50.600;4.608;2023-08-01T13:09:01;24.10;99.90
23991;DHT22;12205;50.600;4.608;2023-08-01T13:11:30;24.50;99.90
23991;DHT22;12205;50.600;4.608;2023-08-01T13:13:57;24.80;99.90
23991;DHT22;12205;50.600;4.608;2023-08-01T13:16:24;24.90;99.90
23991;DHT22;12205;50.600;4.608;2023-08-01T13:18:51;24.50;99.90
23991;DHT22;12205;50.600;4.608;2023-08-01T13:21:18;24.10;99.90
23991;DHT22;12205;50.600;4.608;2023-08-01T13:23:46;23.80;99.90
23991;DHT22;12205;50.600;4.608;2023-08-01T13:26:13;23.60;99.90
23991;DHT22;12205;50.600;4.608;2023-08-01T13:28:42;23.50;99.90
23991;DHT22;12205;50.600;4.608;2023-08-01T13:31:09;23.10;99.90
23991;DHT22;12205;50.600;4.608;2023-08-01T13:33:39;22.70;99.90
23991;DHT22;12205;50.600;4.608;2023-08-01T13:36:09;22.70;99.90
23991;DHT22;12205;50.600;4.608;2023-08-01T13:38:36;22.50;99.90
23991;DHT22;12205;50.600;4.608;2023-08-01T13:41:04;22.20;99.90
23991;DHT22;12205;50.600;4.608;2023-08-01T13:43:31;22.30;99.90
23991;DHT22;12205;50.600;4.608;2023-08-01T13:46:00;21.90;99.90
23991;DHT22;12205;50.600;4.608;2023-08-01T13:48:27;22.20;99.90
23991;DHT22;12205;50.600;4.608;2023-08-01T13:50:57;22.70;99.90
23991;DHT22;12205;50.600;4.608;2023-08-01T13:53:24;23.00;99.90
23991;DHT22;12205;50.600;4.608;2023-08-01T13:55:52;23.30;99.90
23991;DHT22;12205;50.600;4.608;2023-08-01T13:58:19;23.60;99.90
23991;DHT22;12205;50.600;4.608;2023-08-01T14:00:46;24.20;99.90
23991;DHT22;12205;50.600;4.608;2023-08-01T14:03:15;24.30;99.90
23991;DHT22;12205;50.600;4.608;2023-08-01T14:05:42;24.50;99.90
23991;DHT22;12205;50.600;4.608;2023-08-01T14:08:10;24.30;99.90
23991;DHT22;12205;50.600;4.608;2023-08-01T14:10:40;23.70;99.90
23991;DHT22;12205;50.600;4.608;2023-08-01T14:13:09;23.30;99.90
23991;DHT22;12205;50.600;4.608;2023-08-01T14:15:36;22.70;99.90
23991;DHT22;12205;50.600;4.608;2023-08-01T14:18:04;22.40;99.90
23991;DHT22;12205;50.600;4.608;2023-08-01T14:20:38;21.90;99.90
23991;DHT22;12205;50.600;4.608;2023-08-01T14:23:11;21.60;99.90
23991;DHT22;12205;50.600;4.608;2023-08-01T14:25:39;22.00;99.90
23991;DHT22;12205;50.600;4.608;2023-08-01T14:28:06;22.40;99.90
23991;DHT22;12205;50.600;4.608;2023-08-01T14:30:34;22.50;99.90
23991;DHT22;12205;50.600;4.608;2023-08-01T14:33:01;22.10;99.90
23991;DHT22;12205;50.600;4.608;2023-08-01T14:35:30;21.90;99.90
23991;DHT22;12205;50.600;4.608;2023-08-01T14:37:59;21.60;99.90
23991;DHT22;12205;50.600;4.608;2023-08-01T14:40:26;21.50;99.90
23991;DHT22;12205;50.600;4.608;2023-08-01T14:42:54;21.40;99.90
23991;DHT22;12205;50.600;4.608;2023-08-01T14:45:21;21.30;99.90
23991;DHT22;12205;50.600;4.608;2023-08-01T14:47:48;21.30;99.90
23991;DHT22;12205;50.600;4.608;2023-08-01T14:50:16;21.70;99.90
23991;DHT22;12205;50.600;4.608;2023-08-01T14:52:43;22.20;99.90
23991;DHT22;12205;50.600;4.608;2023-08-01T14:55:12;22.60;99.90
23991;DHT22;12205;50.600;4.608;2023-08-01T14:57:40;23.00;99.90
23991;DHT22;12205;50.600;4.608;2023-08-01T15:00:08;23.20;99.90
23991;DHT22;12205;50.600;4.608;2023-08-01T15:02:37;23.20;99.90
23991;DHT22;12205;50.600;4.608;2023-08-01T15:05:19;23.20;99.90
23991;DHT22;12205;50.600;4.608;2023-08-01T15:07:46;23.60;99.90
23991;DHT22;12205;50.600;4.608;2023-08-01T15:10:15;23.60;99.90
23991;DHT22;12205;50.600;4.608;2023-08-01T15:12:42;23.70;99.90
23991;DHT22;12205;50.600;4.608;2023-08-01T15:15:10;23.60;99.90
23991;DHT22;12205;50.600;4.608;2023-08-01T15:17:40;23.30;99.90
23991;DHT22;12205;50.600;4.608;2023-08-01T15:20:09;22.80;99.90
23991;DHT22;12205;50.600;4.608;2023-08-01T15:22:37;22.50;99.90
23991;DHT22;12205;50.600;4.608;2023-08-01T15:25:05;22.20;99.90
23991;DHT22;12205;50.600;4.608;2023-08-01T15:27:34;21.90;99.90
23991;DHT22;12205;50.600;4.608;2023-08-01T15:30:01;21.90;99.90
23991;DHT22;12205;50.600;4.608;2023-08-01T15:32:28;21.80;99.90
23991;DHT22;12205;50.600;4.608;2023-08-01T15:34:56;21.60;99.90